sensor_id;sensor_type;location;lat;lon;timestamp;P1;durP1;ratioP1;P2;durP2;ratioP2
75486;SDS011;65009;44.762;21.516;2023-02-27T00:01:01;10.70;;;7.80;;
75486;SDS011;65009;44.762;21.516;2023-02-27T00:03:27;25.13;;;12.97;;
75486;SDS011;65009;44.762;21.516;2023-02-27T00:05:53;19.90;;;10.80;;
75486;SDS011;65009;44.762;21.516;2023-02-27T00:08:20;19.60;;;11.13;;
75486;SDS011;65009;44.762;21.516;2023-02-27T00:10:46;24.23;;;12.77;;
75486;SDS011;65009;44.762;21.516;2023-02-27T00:13:13;20.60;;;11.10;;
75486;SDS011;65009;44.762;21.516;2023-02-27T00:15:39;20.17;;;11.43;;
75486;SDS011;65009;44.762;21.516;2023-02-27T00:18:05;27.30;;;17.17;;
75486;SDS011;65009;44.762;21.516;2023-02-27T00:20:32;40.47;;;22.20;;
75486;SDS011;65009;44.762;21.516;2023-02-27T00:23:05;36.37;;;21.93;;
75486;SDS011;65009;44.762;21.516;2023-02-27T00:25:31;28.73;;;18.40;;
75486;SDS011;65009;44.762;21.516;2023-02-27T00:27:58;26.57;;;16.80;;
75486;SDS011;65009;44.762;21.516;2023-02-27T00:30:24;106.43;;;41.40;;
75486;SDS011;65009;44.762;21.516;2023-02-27T00:32:52;54.00;;;24.43;;
75486;SDS011;65009;44.762;21.516;2023-02-27T00:35:18;91.90;;;43.93;;
75486;SDS011;65009;44.762;21.516;2023-02-27T00:37:44;81.70;;;39.63;;
75486;SDS011;65009;44.762;21.516;2023-02-27T00:40:11;54.97;;;28.03;;
75486;SDS011;65009;44.762;21.516;2023-02-27T00:42:37;42.27;;;25.90;;
75486;SDS011;65009;44.762;21.516;2023-02-27T00:45:04;38.30;;;22.63;;
75486;SDS011;65009;44.762;21.516;2023-02-27T00:47:31;35.47;;;22.67;;
75486;SDS011;65009;44.762;21.516;2023-02-27T00:49:58;36.60;;;22.00;;
75486;SDS011;65009;44.762;21.516;2023-02-27T00:52:24;26.70;;;17.23;;
75486;SDS011;65009;44.762;21.516;2023-02-27T00:54:51;25.27;;;17.00;;
75486;SDS011;65009;44.762;21.516;2023-02-27T00:57:17;20.53;;;14.67;;
75486;SDS011;65009;44.762;21.516;2023-02-27T00:59:43;70.00;;;41.33;;
75486;SDS011;65009;44.762;21.516;2023-02-27T01:02:10;74.00;;;40.10;;
75486;SDS011;65009;44.762;21.516;2023-02-27T01:04:36;44.80;;;27.97;;
75486;SDS011;65009;44.762;21.516;2023-02-27T01:07:03;25.40;;;17.00;;
75486;SDS011;65009;44.762;21.516;2023-02-27T01:09:29;45.97;;;26.67;;
75486;SDS011;65009;44.762;21.516;2023-02-27T01:11:55;23.47;;;15.93;;
75486;SDS011;65009;44.762;21.516;2023-02-27T01:14:22;37.70;;;21.50;;
75486;SDS011;65009;44.762;21.516;2023-02-27T01:16:48;34.53;;;21.00;;
75486;SDS011;65009;44.762;21.516;2023-02-27T01:19:14;61.33;;;32.47;;
75486;SDS011;65009;44.762;21.516;2023-02-27T01:21:40;73.10;;;38.40;;
75486;SDS011;65009;44.762;21.516;2023-02-27T01:24:07;44.27;;;25.07;;
75486;SDS011;65009;44.762;21.516;2023-02-27T01:26:33;45.47;;;27.20;;
75486;SDS011;65009;44.762;21.516;2023-02-27T01:28:59;46.67;;;27.40;;
75486;SDS011;65009;44.762;21.516;2023-02-27T01:31:26;50.23;;;28.57;;
75486;SDS011;65009;44.762;21.516;2023-02-27T01:33:52;44.13;;;26.03;;
75486;SDS011;65009;44.762;21.516;2023-02-27T01:36:18;55.60;;;31.73;;
75486;SDS011;65009;44.762;21.516;2023-02-27T01:38:45;35.03;;;22.57;;
75486;SDS011;65009;44.762;21.516;2023-02-27T01:41:11;45.73;;;26.50;;
75486;SDS011;65009;44.762;21.516;2023-02-27T01:43:57;50.63;;;29.33;;
75486;SDS011;65009;44.762;21.516;2023-02-27T01:46:23;118.27;;;58.83;;
75486;SDS011;65009;44.762;21.516;2023-02-27T01:48:50;56.43;;;30.60;;
75486;SDS011;65009;44.762;21.516;2023-02-27T01:51:19;63.53;;;35.93;;
75486;SDS011;65009;44.762;21.516;2023-02-27T01:53:49;151.30;;;69.10;;
75486;SDS011;65009;44.762;21.516;2023-02-27T01:56:22;53.27;;;31.27;;
75486;SDS011;65009;44.762;21.516;2023-02-27T01:58:49;41.40;;;26.23;;
75486;SDS011;65009;44.762;21.516;2023-02-27T02:01:16;40.47;;;25.07;;
75486;SDS011;65009;44.762;21.516;2023-02-27T02:06:10;42.43;;;25.17;;
75486;SDS011;65009;44.762;21.516;2023-02-27T02:08:38;43.90;;;25.93;;
75486;SDS011;65009;44.762;21.516;2023-02-27T02:11:05;53.43;;;29.90;;
75486;SDS011;65009;44.762;21.516;2023-02-27T02:13:33;85.33;;;44.67;;
75486;SDS011;65009;44.762;21.516;2023-02-27T02:16:05;28.97;;;17.57;;
75486;SDS011;65009;44.762;21.516;2023-02-27T02:26:49;55.73;;;31.43;;
75486;SDS011;65009;44.762;21.516;2023-02-27T02:31:51;70.63;;;39.40;;
75486;SDS011;65009;44.762;21.516;2023-02-27T02:37:14;61.23;;;34.20;;
75486;SDS011;65009;44.762;21.516;2023-02-27T02:42:23;60.40;;;31.53;;
75486;SDS011;65009;44.762;21.516;2023-02-27T02:47:42;36.97;;;21.60;;
75486;SDS011;65009;44.762;21.516;2023-02-27T02:50:29;43.90;;;25.13;;
75486;SDS011;65009;44.762;21.516;2023-02-27T02:53:02;59.47;;;32.53;;
75486;SDS011;65009;44.762;21.516;2023-02-27T02:55:31;53.30;;;29.23;;
75486;SDS011;65009;44.762;21.516;2023-02-27T03:00:32;35.50;;;20.80;;
75486;SDS011;65009;44.762;21.516;2023-02-27T03:03:02;34.17;;;20.17;;
75486;SDS011;65009;44.762;21.516;2023-02-27T03:05:32;21.98;;;14.75;;
75486;SDS011;65009;44.762;21.516;2023-02-27T03:08:19;57.90;;;33.67;;
75486;SDS011;65009;44.762;21.516;2023-02-27T03:13:22;35.90;;;20.00;;
75486;SDS011;65009;44.762;21.516;2023-02-27T03:15:53;89.57;;;37.93;;
75486;SDS011;65009;44.762;21.516;2023-02-27T03:18:21;70.67;;;28.97;;
75486;SDS011;65009;44.762;21.516;2023-02-27T03:20:53;112.60;;;39.10;;
75486;SDS011;65009;44.762;21.516;2023-02-27T03:23:22;247.38;;;74.47;;
75486;SDS011;65009;44.762;21.516;2023-02-27T03:25:49;223.83;;;67.87;;
75486;SDS011;65009;44.762;21.516;2023-02-27T03:28:18;321.57;;;84.87;;
75486;SDS011;65009;44.762;21.516;2023-02-27T03:30:51;105.07;;;31.13;;
75486;SDS011;65009;44.762;21.516;2023-02-27T03:35:56;133.33;;;43.43;;
75486;SDS011;65009;44.762;21.516;2023-02-27T03:43:36;29.83;;;15.40;;
75486;SDS011;65009;44.762;21.516;2023-02-27T03:46:13;117.40;;;47.37;;
75486;SDS011;65009;44.762;21.516;2023-02-27T03:48:40;190.73;;;74.93;;
75486;SDS011;65009;44.762;21.516;2023-02-27T03:51:12;60.00;;;27.67;;
75486;SDS011;65009;44.762;21.516;2023-02-27T03:56:05;87.47;;;35.70;;
75486;SDS011;65009;44.762;21.516;2023-02-27T03:58:33;97.00;;;49.70;;
75486;SDS011;65009;44.762;21.516;2023-02-27T04:01:00;81.90;;;42.43;;
75486;SDS011;65009;44.762;21.516;2023-02-27T04:03:26;33.20;;;18.40;;
75486;SDS011;65009;44.762;21.516;2023-02-27T04:05:53;50.53;;;29.67;;
75486;SDS011;65009;44.762;21.516;2023-02-27T04:11:28;57.17;;;29.63;;
75486;SDS011;65009;44.762;21.516;2023-02-27T04:13:58;53.27;;;30.17;;
75486;SDS011;65009;44.762;21.516;2023-02-27T04:27:02;28.70;;;16.97;;
75486;SDS011;65009;44.762;21.516;2023-02-27T04:29:33;29.97;;;20.27;;
75486;SDS011;65009;44.762;21.516;2023-02-27T04:32:09;25.07;;;14.03;;
75486;SDS011;65009;44.762;21.516;2023-02-27T04:34:41;24.83;;;14.87;;
75486;SDS011;65009;44.762;21.516;2023-02-27T04:39:49;26.03;;;16.67;;
75486;SDS011;65009;44.762;21.516;2023-02-27T04:42:22;23.80;;;14.93;;
75486;SDS011;65009;44.762;21.516;2023-02-27T04:44:50;25.40;;;15.27;;
75486;SDS011;65009;44.762;21.516;2023-02-27T04:47:17;22.37;;;14.63;;
75486;SDS011;65009;44.762;21.516;2023-02-27T04:49:45;22.13;;;14.27;;
75486;SDS011;65009;44.762;21.516;2023-02-27T04:52:17;26.47;;;17.30;;
75486;SDS011;65009;44.762;21.516;2023-02-27T04:54:51;22.48;;;13.43;;
75486;SDS011;65009;44.762;21.516;2023-02-27T04:57:20;20.03;;;12.40;;
75486;SDS011;65009;44.762;21.516;2023-02-27T04:59:50;24.77;;;17.70;;
75486;SDS011;65009;44.762;21.516;2023-02-27T05:02:19;28.20;;;20.73;;
75486;SDS011;65009;44.762;21.516;2023-02-27T05:04:49;31.60;;;24.52;;
75486;SDS011;65009;44.762;21.516;2023-02-27T05:07:17;22.60;;;13.17;;
75486;SDS011;65009;44.762;21.516;2023-02-27T05:09:47;19.37;;;11.80;;
75486;SDS011;65009;44.762;21.516;2023-02-27T05:15:07;31.03;;;16.33;;
75486;SDS011;65009;44.762;21.516;2023-02-27T05:20:06;22.60;;;15.30;;
75486;SDS011;65009;44.762;21.516;2023-02-27T05:22:46;21.73;;;15.37;;
75486;SDS011;65009;44.762;21.516;2023-02-27T05:25:15;23.42;;;16.08;;
75486;SDS011;65009;44.762;21.516;2023-02-27T05:27:46;25.93;;;15.73;;
75486;SDS011;65009;44.762;21.516;2023-02-27T05:32:41;24.73;;;16.23;;
75486;SDS011;65009;44.762;21.516;2023-02-27T05:37:52;41.40;;;25.05;;
75486;SDS011;65009;44.762;21.516;2023-02-27T05:40:36;25.37;;;16.67;;
75486;SDS011;65009;44.762;21.516;2023-02-27T05:43:09;28.30;;;17.77;;
75486;SDS011;65009;44.762;21.516;2023-02-27T05:45:36;34.10;;;19.53;;
75486;SDS011;65009;44.762;21.516;2023-02-27T05:48:13;47.57;;;27.90;;
75486;SDS011;65009;44.762;21.516;2023-02-27T05:50:40;33.40;;;19.47;;
75486;SDS011;65009;44.762;21.516;2023-02-27T05:53:09;33.60;;;20.60;;
75486;SDS011;65009;44.762;21.516;2023-02-27T05:55:37;45.90;;;23.93;;
75486;SDS011;65009;44.762;21.516;2023-02-27T06:00:49;30.33;;;17.77;;
75486;SDS011;65009;44.762;21.516;2023-02-27T06:03:16;30.90;;;18.27;;
75486;SDS011;65009;44.762;21.516;2023-02-27T06:05:43;37.50;;;20.80;;
75486;SDS011;65009;44.762;21.516;2023-02-27T06:08:09;56.00;;;29.13;;
75486;SDS011;65009;44.762;21.516;2023-02-27T06:10:36;44.70;;;25.40;;
75486;SDS011;65009;44.762;21.516;2023-02-27T06:13:02;32.50;;;17.60;;
75486;SDS011;65009;44.762;21.516;2023-02-27T06:15:28;28.20;;;16.53;;
75486;SDS011;65009;44.762;21.516;2023-02-27T06:17:54;31.00;;;17.73;;
75486;SDS011;65009;44.762;21.516;2023-02-27T06:20:21;26.13;;;16.83;;
75486;SDS011;65009;44.762;21.516;2023-02-27T06:22:47;24.17;;;14.53;;
75486;SDS011;65009;44.762;21.516;2023-02-27T06:25:13;20.17;;;12.03;;
75486;SDS011;65009;44.762;21.516;2023-02-27T06:27:39;20.03;;;10.90;;
75486;SDS011;65009;44.762;21.516;2023-02-27T06:30:06;18.53;;;11.70;;
75486;SDS011;65009;44.762;21.516;2023-02-27T06:32:32;21.53;;;12.67;;
75486;SDS011;65009;44.762;21.516;2023-02-27T06:34:58;19.93;;;11.53;;
75486;SDS011;65009;44.762;21.516;2023-02-27T06:37:24;26.30;;;14.37;;
75486;SDS011;65009;44.762;21.516;2023-02-27T06:39:51;27.23;;;15.87;;
75486;SDS011;65009;44.762;21.516;2023-02-27T06:42:17;23.93;;;12.90;;
75486;SDS011;65009;44.762;21.516;2023-02-27T06:44:43;30.47;;;15.93;;
75486;SDS011;65009;44.762;21.516;2023-02-27T06:47:10;40.30;;;20.23;;
75486;SDS011;65009;44.762;21.516;2023-02-27T06:49:36;34.17;;;17.13;;
75486;SDS011;65009;44.762;21.516;2023-02-27T06:52:02;43.43;;;22.50;;
75486;SDS011;65009;44.762;21.516;2023-02-27T06:54:28;31.00;;;16.97;;
75486;SDS011;65009;44.762;21.516;2023-02-27T06:56:54;85.47;;;42.67;;
75486;SDS011;65009;44.762;21.516;2023-02-27T06:59:20;38.50;;;22.80;;
75486;SDS011;65009;44.762;21.516;2023-02-27T07:01:47;102.27;;;56.60;;
75486;SDS011;65009;44.762;21.516;2023-02-27T07:04:13;65.83;;;37.90;;
75486;SDS011;65009;44.762;21.516;2023-02-27T07:06:39;91.90;;;49.67;;
75486;SDS011;65009;44.762;21.516;2023-02-27T07:09:05;53.80;;;29.97;;
75486;SDS011;65009;44.762;21.516;2023-02-27T07:11:32;57.87;;;33.27;;
75486;SDS011;65009;44.762;21.516;2023-02-27T07:13:58;42.17;;;24.23;;
75486;SDS011;65009;44.762;21.516;2023-02-27T07:16:24;52.83;;;29.53;;
75486;SDS011;65009;44.762;21.516;2023-02-27T07:18:50;59.07;;;31.67;;
75486;SDS011;65009;44.762;21.516;2023-02-27T07:21:16;36.73;;;20.90;;
75486;SDS011;65009;44.762;21.516;2023-02-27T07:23:42;46.17;;;23.93;;
75486;SDS011;65009;44.762;21.516;2023-02-27T07:26:08;44.17;;;23.97;;
75486;SDS011;65009;44.762;21.516;2023-02-27T07:28:34;40.43;;;23.90;;
75486;SDS011;65009;44.762;21.516;2023-02-27T07:31:01;33.10;;;19.67;;
75486;SDS011;65009;44.762;21.516;2023-02-27T07:33:27;28.00;;;17.50;;
75486;SDS011;65009;44.762;21.516;2023-02-27T07:35:53;35.70;;;22.43;;
75486;SDS011;65009;44.762;21.516;2023-02-27T07:38:19;37.87;;;21.17;;
75486;SDS011;65009;44.762;21.516;2023-02-27T07:40:48;34.70;;;19.53;;
75486;SDS011;65009;44.762;21.516;2023-02-27T07:43:14;37.37;;;22.27;;
75486;SDS011;65009;44.762;21.516;2023-02-27T07:45:40;29.20;;;17.27;;
75486;SDS011;65009;44.762;21.516;2023-02-27T07:48:06;36.80;;;22.77;;
75486;SDS011;65009;44.762;21.516;2023-02-27T07:50:32;49.90;;;27.70;;
75486;SDS011;65009;44.762;21.516;2023-02-27T07:52:58;40.80;;;24.67;;
75486;SDS011;65009;44.762;21.516;2023-02-27T07:55:25;31.03;;;19.43;;
75486;SDS011;65009;44.762;21.516;2023-02-27T07:57:51;41.33;;;22.83;;
75486;SDS011;65009;44.762;21.516;2023-02-27T08:00:17;35.23;;;20.63;;
75486;SDS011;65009;44.762;21.516;2023-02-27T08:02:43;38.63;;;19.97;;
75486;SDS011;65009;44.762;21.516;2023-02-27T08:05:10;38.43;;;20.10;;
75486;SDS011;65009;44.762;21.516;2023-02-27T08:07:36;37.57;;;20.33;;
75486;SDS011;65009;44.762;21.516;2023-02-27T08:10:03;38.70;;;20.97;;
75486;SDS011;65009;44.762;21.516;2023-02-27T08:12:29;34.93;;;20.70;;
75486;SDS011;65009;44.762;21.516;2023-02-27T08:14:55;29.27;;;16.93;;
75486;SDS011;65009;44.762;21.516;2023-02-27T08:17:21;38.90;;;25.03;;
75486;SDS011;65009;44.762;21.516;2023-02-27T08:19:47;50.67;;;28.30;;
75486;SDS011;65009;44.762;21.516;2023-02-27T08:22:14;45.10;;;25.53;;
75486;SDS011;65009;44.762;21.516;2023-02-27T08:24:40;37.67;;;20.57;;
75486;SDS011;65009;44.762;21.516;2023-02-27T08:27:06;40.70;;;22.40;;
75486;SDS011;65009;44.762;21.516;2023-02-27T08:29:32;47.50;;;24.30;;
75486;SDS011;65009;44.762;21.516;2023-02-27T08:32:00;58.00;;;31.47;;
75486;SDS011;65009;44.762;21.516;2023-02-27T08:34:27;57.70;;;26.43;;
75486;SDS011;65009;44.762;21.516;2023-02-27T08:36:54;45.73;;;21.73;;
75486;SDS011;65009;44.762;21.516;2023-02-27T08:39:20;38.90;;;21.00;;
75486;SDS011;65009;44.762;21.516;2023-02-27T08:41:48;37.87;;;20.77;;
75486;SDS011;65009;44.762;21.516;2023-02-27T08:44:16;38.03;;;22.33;;
75486;SDS011;65009;44.762;21.516;2023-02-27T08:46:42;32.80;;;19.53;;
75486;SDS011;65009;44.762;21.516;2023-02-27T08:49:09;39.67;;;23.50;;
75486;SDS011;65009;44.762;21.516;2023-02-27T08:51:35;46.63;;;27.53;;
75486;SDS011;65009;44.762;21.516;2023-02-27T08:54:01;47.50;;;28.60;;
75486;SDS011;65009;44.762;21.516;2023-02-27T08:56:27;38.60;;;23.33;;
75486;SDS011;65009;44.762;21.516;2023-02-27T08:58:54;37.73;;;23.40;;
75486;SDS011;65009;44.762;21.516;2023-02-27T09:01:20;36.50;;;21.73;;
75486;SDS011;65009;44.762;21.516;2023-02-27T09:03:46;49.10;;;25.70;;
75486;SDS011;65009;44.762;21.516;2023-02-27T09:06:13;50.20;;;28.30;;
75486;SDS011;65009;44.762;21.516;2023-02-27T09:08:39;43.23;;;25.10;;
75486;SDS011;65009;44.762;21.516;2023-02-27T09:11:05;45.13;;;26.17;;
75486;SDS011;65009;44.762;21.516;2023-02-27T09:13:31;45.33;;;25.27;;
75486;SDS011;65009;44.762;21.516;2023-02-27T09:15:57;42.33;;;23.73;;
75486;SDS011;65009;44.762;21.516;2023-02-27T09:18:23;39.93;;;22.90;;
75486;SDS011;65009;44.762;21.516;2023-02-27T09:20:50;46.10;;;25.80;;
75486;SDS011;65009;44.762;21.516;2023-02-27T09:23:16;40.43;;;23.13;;
75486;SDS011;65009;44.762;21.516;2023-02-27T09:25:42;40.60;;;23.33;;
75486;SDS011;65009;44.762;21.516;2023-02-27T09:28:09;43.13;;;25.00;;
75486;SDS011;65009;44.762;21.516;2023-02-27T09:30:35;41.30;;;24.13;;
75486;SDS011;65009;44.762;21.516;2023-02-27T09:33:01;38.87;;;24.70;;
75486;SDS011;65009;44.762;21.516;2023-02-27T09:35:27;39.40;;;23.87;;
75486;SDS011;65009;44.762;21.516;2023-02-27T09:37:54;41.00;;;23.87;;
75486;SDS011;65009;44.762;21.516;2023-02-27T09:40:28;41.07;;;24.70;;
75486;SDS011;65009;44.762;21.516;2023-02-27T09:42:59;43.60;;;26.87;;
75486;SDS011;65009;44.762;21.516;2023-02-27T09:45:28;37.80;;;23.77;;
75486;SDS011;65009;44.762;21.516;2023-02-27T09:47:57;35.03;;;21.80;;
75486;SDS011;65009;44.762;21.516;2023-02-27T09:52:53;37.57;;;24.00;;
75486;SDS011;65009;44.762;21.516;2023-02-27T09:55:20;41.03;;;25.13;;
75486;SDS011;65009;44.762;21.516;2023-02-27T09:57:54;41.10;;;24.53;;
75486;SDS011;65009;44.762;21.516;2023-02-27T10:00:34;39.87;;;22.93;;
75486;SDS011;65009;44.762;21.516;2023-02-27T10:05:42;38.63;;;24.07;;
75486;SDS011;65009;44.762;21.516;2023-02-27T10:10:42;43.53;;;26.20;;
75486;SDS011;65009;44.762;21.516;2023-02-27T10:15:55;50.40;;;28.23;;
75486;SDS011;65009;44.762;21.516;2023-02-27T10:18:27;49.20;;;27.70;;
75486;SDS011;65009;44.762;21.516;2023-02-27T10:20:56;38.13;;;23.70;;
75486;SDS011;65009;44.762;21.516;2023-02-27T10:23:31;33.10;;;20.27;;
75486;SDS011;65009;44.762;21.516;2023-02-27T10:25:59;40.87;;;24.70;;
75486;SDS011;65009;44.762;21.516;2023-02-27T10:28:25;39.87;;;23.93;;
75486;SDS011;65009;44.762;21.516;2023-02-27T10:30:53;41.30;;;24.47;;
75486;SDS011;65009;44.762;21.516;2023-02-27T10:33:24;42.47;;;25.53;;
75486;SDS011;65009;44.762;21.516;2023-02-27T10:35:51;68.18;;;39.90;;
75486;SDS011;65009;44.762;21.516;2023-02-27T10:40:55;69.23;;;43.27;;
75486;SDS011;65009;44.762;21.516;2023-02-27T10:43:22;46.97;;;29.70;;
75486;SDS011;65009;44.762;21.516;2023-02-27T10:45:49;49.13;;;32.23;;
75486;SDS011;65009;44.762;21.516;2023-02-27T10:48:15;60.60;;;39.47;;
75486;SDS011;65009;44.762;21.516;2023-02-27T10:50:42;82.20;;;53.53;;
75486;SDS011;65009;44.762;21.516;2023-02-27T10:53:22;63.50;;;40.00;;
75486;SDS011;65009;44.762;21.516;2023-02-27T10:56:05;84.97;;;55.33;;
75486;SDS011;65009;44.762;21.516;2023-02-27T10:58:33;46.77;;;29.40;;
75486;SDS011;65009;44.762;21.516;2023-02-27T11:01:01;46.03;;;28.83;;
75486;SDS011;65009;44.762;21.516;2023-02-27T11:03:31;45.87;;;27.67;;
75486;SDS011;65009;44.762;21.516;2023-02-27T11:05:59;59.43;;;36.77;;
75486;SDS011;65009;44.762;21.516;2023-02-27T11:08:28;53.27;;;32.17;;
75486;SDS011;65009;44.762;21.516;2023-02-27T11:13:21;42.90;;;26.13;;
75486;SDS011;65009;44.762;21.516;2023-02-27T11:16:32;44.10;;;27.53;;
75486;SDS011;65009;44.762;21.516;2023-02-27T11:18:43;44.50;;;27.37;;
75486;SDS011;65009;44.762;21.516;2023-02-27T11:23:35;41.33;;;25.23;;
75486;SDS011;65009;44.762;21.516;2023-02-27T11:26:24;44.20;;;26.20;;
75486;SDS011;65009;44.762;21.516;2023-02-27T11:31:54;61.37;;;39.50;;
75486;SDS011;65009;44.762;21.516;2023-02-27T11:34:25;91.17;;;57.30;;
75486;SDS011;65009;44.762;21.516;2023-02-27T11:36:53;47.50;;;31.13;;
75486;SDS011;65009;44.762;21.516;2023-02-27T11:39:34;40.90;;;24.83;;
75486;SDS011;65009;44.762;21.516;2023-02-27T11:42:12;46.07;;;29.17;;
75486;SDS011;65009;44.762;21.516;2023-02-27T11:44:44;40.87;;;25.77;;
75486;SDS011;65009;44.762;21.516;2023-02-27T11:47:13;37.83;;;24.27;;
75486;SDS011;65009;44.762;21.516;2023-02-27T11:49:51;41.53;;;25.27;;
75486;SDS011;65009;44.762;21.516;2023-02-27T11:52:25;40.80;;;26.00;;
75486;SDS011;65009;44.762;21.516;2023-02-27T11:54:56;41.13;;;27.80;;
75486;SDS011;65009;44.762;21.516;2023-02-27T11:57:27;42.43;;;27.53;;
75486;SDS011;65009;44.762;21.516;2023-02-27T12:05:13;36.67;;;23.27;;
75486;SDS011;65009;44.762;21.516;2023-02-27T12:07:43;32.03;;;20.93;;
75486;SDS011;65009;44.762;21.516;2023-02-27T12:10:20;36.43;;;21.47;;
75486;SDS011;65009;44.762;21.516;2023-02-27T12:12:53;34.53;;;23.00;;
75486;SDS011;65009;44.762;21.516;2023-02-27T12:17:48;37.60;;;22.33;;
75486;SDS011;65009;44.762;21.516;2023-02-27T12:20:34;39.27;;;23.97;;
75486;SDS011;65009;44.762;21.516;2023-02-27T12:23:02;35.57;;;21.97;;
75486;SDS011;65009;44.762;21.516;2023-02-27T12:25:34;45.53;;;26.70;;
75486;SDS011;65009;44.762;21.516;2023-02-27T12:28:05;36.60;;;22.53;;
75486;SDS011;65009;44.762;21.516;2023-02-27T12:30:35;54.30;;;31.17;;
75486;SDS011;65009;44.762;21.516;2023-02-27T12:35:33;36.67;;;22.10;;
75486;SDS011;65009;44.762;21.516;2023-02-27T12:38:00;30.43;;;19.57;;
75486;SDS011;65009;44.762;21.516;2023-02-27T12:40:30;38.77;;;24.30;;
75486;SDS011;65009;44.762;21.516;2023-02-27T12:50:37;41.77;;;26.57;;
75486;SDS011;65009;44.762;21.516;2023-02-27T12:53:41;40.80;;;25.73;;
75486;SDS011;65009;44.762;21.516;2023-02-27T12:56:03;46.57;;;29.37;;
75486;SDS011;65009;44.762;21.516;2023-02-27T13:00:57;46.97;;;28.97;;
75486;SDS011;65009;44.762;21.516;2023-02-27T13:08:47;43.37;;;25.43;;
75486;SDS011;65009;44.762;21.516;2023-02-27T13:11:23;40.17;;;23.93;;
75486;SDS011;65009;44.762;21.516;2023-02-27T13:14:11;36.17;;;21.10;;
75486;SDS011;65009;44.762;21.516;2023-02-27T13:16:49;35.47;;;21.33;;
75486;SDS011;65009;44.762;21.516;2023-02-27T13:19:25;34.03;;;21.60;;
75486;SDS011;65009;44.762;21.516;2023-02-27T13:21:54;39.90;;;23.73;;
75486;SDS011;65009;44.762;21.516;2023-02-27T13:26:54;34.80;;;21.53;;
75486;SDS011;65009;44.762;21.516;2023-02-27T13:29:23;35.77;;;22.50;;
75486;SDS011;65009;44.762;21.516;2023-02-27T13:34:28;32.70;;;20.80;;
75486;SDS011;65009;44.762;21.516;2023-02-27T13:37:02;33.20;;;20.50;;
75486;SDS011;65009;44.762;21.516;2023-02-27T13:44:40;37.20;;;21.37;;
75486;SDS011;65009;44.762;21.516;2023-02-27T13:49:51;36.63;;;23.33;;
75486;SDS011;65009;44.762;21.516;2023-02-27T13:52:23;32.50;;;21.60;;
75486;SDS011;65009;44.762;21.516;2023-02-27T13:54:52;30.23;;;20.93;;
75486;SDS011;65009;44.762;21.516;2023-02-27T13:57:20;32.13;;;20.33;;
75486;SDS011;65009;44.762;21.516;2023-02-27T13:59:56;31.17;;;20.63;;
75486;SDS011;65009;44.762;21.516;2023-02-27T14:03:24;45.33;;;28.30;;
75486;SDS011;65009;44.762;21.516;2023-02-27T14:05:25;36.90;;;21.67;;
75486;SDS011;65009;44.762;21.516;2023-02-27T14:07:55;44.60;;;25.07;;
75486;SDS011;65009;44.762;21.516;2023-02-27T14:10:27;37.63;;;24.23;;
75486;SDS011;65009;44.762;21.516;2023-02-27T14:18:01;47.50;;;28.27;;
75486;SDS011;65009;44.762;21.516;2023-02-27T14:30:57;54.47;;;34.37;;
75486;SDS011;65009;44.762;21.516;2023-02-27T14:33:26;52.17;;;34.17;;
75486;SDS011;65009;44.762;21.516;2023-02-27T14:36:00;53.60;;;32.00;;
75486;SDS011;65009;44.762;21.516;2023-02-27T14:38:27;59.60;;;36.40;;
75486;SDS011;65009;44.762;21.516;2023-02-27T14:43:37;48.13;;;28.40;;
75486;SDS011;65009;44.762;21.516;2023-02-27T14:46:06;51.30;;;30.17;;
75486;SDS011;65009;44.762;21.516;2023-02-27T14:48:32;55.60;;;31.13;;
75486;SDS011;65009;44.762;21.516;2023-02-27T14:51:01;48.73;;;28.13;;
75486;SDS011;65009;44.762;21.516;2023-02-27T14:53:27;43.10;;;26.63;;
75486;SDS011;65009;44.762;21.516;2023-02-27T14:55:55;40.57;;;25.03;;
75486;SDS011;65009;44.762;21.516;2023-02-27T14:58:21;42.20;;;25.67;;
75486;SDS011;65009;44.762;21.516;2023-02-27T15:03:26;57.47;;;34.97;;
75486;SDS011;65009;44.762;21.516;2023-02-27T15:05:56;64.17;;;34.50;;
75486;SDS011;65009;44.762;21.516;2023-02-27T15:08:27;65.30;;;34.87;;
75486;SDS011;65009;44.762;21.516;2023-02-27T15:10:54;66.50;;;35.97;;
75486;SDS011;65009;44.762;21.516;2023-02-27T15:13:32;64.60;;;33.60;;
75486;SDS011;65009;44.762;21.516;2023-02-27T15:18:57;52.53;;;29.40;;
75486;SDS011;65009;44.762;21.516;2023-02-27T15:21:24;53.07;;;31.77;;
75486;SDS011;65009;44.762;21.516;2023-02-27T15:23:55;51.47;;;31.33;;
75486;SDS011;65009;44.762;21.516;2023-02-27T15:26:22;57.00;;;31.10;;
75486;SDS011;65009;44.762;21.516;2023-02-27T15:28:49;52.07;;;31.53;;
75486;SDS011;65009;44.762;21.516;2023-02-27T15:31:21;46.03;;;28.70;;
75486;SDS011;65009;44.762;21.516;2023-02-27T15:33:48;67.43;;;37.67;;
75486;SDS011;65009;44.762;21.516;2023-02-27T15:36:18;59.27;;;35.67;;
75486;SDS011;65009;44.762;21.516;2023-02-27T15:38:45;49.77;;;29.47;;
75486;SDS011;65009;44.762;21.516;2023-02-27T15:41:11;47.30;;;28.73;;
75486;SDS011;65009;44.762;21.516;2023-02-27T15:43:39;51.90;;;30.03;;
75486;SDS011;65009;44.762;21.516;2023-02-27T15:46:05;62.17;;;34.60;;
75486;SDS011;65009;44.762;21.516;2023-02-27T15:48:32;54.27;;;31.20;;
75486;SDS011;65009;44.762;21.516;2023-02-27T15:50:58;63.63;;;33.10;;
75486;SDS011;65009;44.762;21.516;2023-02-27T15:53:27;57.30;;;34.73;;
75486;SDS011;65009;44.762;21.516;2023-02-27T15:55:55;55.17;;;32.63;;
75486;SDS011;65009;44.762;21.516;2023-02-27T15:58:25;46.10;;;29.07;;
75486;SDS011;65009;44.762;21.516;2023-02-27T16:00:57;61.85;;;38.47;;
75486;SDS011;65009;44.762;21.516;2023-02-27T16:03:24;48.70;;;30.03;;
75486;SDS011;65009;44.762;21.516;2023-02-27T16:05:54;49.47;;;29.50;;
75486;SDS011;65009;44.762;21.516;2023-02-27T16:08:21;77.63;;;46.40;;
75486;SDS011;65009;44.762;21.516;2023-02-27T16:10:47;83.77;;;50.20;;
75486;SDS011;65009;44.762;21.516;2023-02-27T16:15:56;80.80;;;47.97;;
75486;SDS011;65009;44.762;21.516;2023-02-27T16:18:28;64.17;;;37.63;;
75486;SDS011;65009;44.762;21.516;2023-02-27T16:21:17;61.35;;;36.15;;
75486;SDS011;65009;44.762;21.516;2023-02-27T16:23:42;69.60;;;39.80;;
75486;SDS011;65009;44.762;21.516;2023-02-27T16:26:20;87.03;;;49.13;;
75486;SDS011;65009;44.762;21.516;2023-02-27T16:29:13;84.07;;;46.60;;
75486;SDS011;65009;44.762;21.516;2023-02-27T16:31:37;67.47;;;38.83;;
75486;SDS011;65009;44.762;21.516;2023-02-27T16:34:14;69.40;;;36.37;;
75486;SDS011;65009;44.762;21.516;2023-02-27T16:36:55;58.43;;;32.63;;
75486;SDS011;65009;44.762;21.516;2023-02-27T16:39:22;61.83;;;33.03;;
75486;SDS011;65009;44.762;21.516;2023-02-27T16:41:48;75.03;;;36.53;;
75486;SDS011;65009;44.762;21.516;2023-02-27T16:44:14;65.87;;;35.03;;
75486;SDS011;65009;44.762;21.516;2023-02-27T16:46:42;133.33;;;58.03;;
75486;SDS011;65009;44.762;21.516;2023-02-27T16:49:17;89.37;;;43.33;;
75486;SDS011;65009;44.762;21.516;2023-02-27T16:51:43;66.23;;;35.33;;